createdAt,value
2022-07-29T00:00:01.120Z,97663.13
2022-07-29T00:02:29.189Z,97657.61
2022-07-29T00:04:56.751Z,97658.39
2022-07-29T00:07:24.425Z,97658.38
2022-07-29T00:09:52.720Z,97660.36
2022-07-29T00:12:26.572Z,97658.20
2022-07-29T00:14:55.381Z,97659.57
2022-07-29T00:17:26.958Z,97659.77
2022-07-29T00:19:54.906Z,97663.31
2022-07-29T00:22:22.766Z,97657.42
2022-07-29T00:24:50.428Z,97652.11
2022-07-29T00:27:18.622Z,97662.92
2022-07-29T00:29:46.764Z,97657.02
2022-07-29T00:32:14.585Z,97661.55
2022-07-29T00:35:00.884Z,97652.50
2022-07-29T00:37:29.172Z,97654.07
2022-07-29T00:39:56.938Z,97646.20
2022-07-29T00:42:24.565Z,97641.28
2022-07-29T00:44:52.280Z,97645.61
2022-07-29T00:47:19.921Z,97646.39
2022-07-29T00:49:48.168Z,97645.59
2022-07-29T00:52:16.855Z,97642.46
2022-07-29T00:54:45.173Z,97642.83
2022-07-29T00:57:13.694Z,97640.47
2022-07-29T00:59:41.571Z,97641.25
2022-07-29T01:02:09.547Z,97637.33
2022-07-29T01:04:37.155Z,97634.77
2022-07-29T01:07:06.143Z,97638.72
2022-07-29T01:09:46.222Z,97636.34
2022-07-29T01:12:08.119Z,97631.23
2022-07-29T01:14:37.672Z,97626.30
2022-07-29T01:17:13.801Z,97624.14
2022-07-29T01:19:55.818Z,97620.80
2022-07-29T01:22:51.555Z,97617.07
2022-07-29T01:25:53.278Z,97615.69
2022-07-29T01:28:57.265Z,97610.37
2022-07-29T01:31:59.524Z,97601.91
2022-07-29T01:34:23.117Z,97602.28
2022-07-29T01:37:11.293Z,97595.80
2022-07-29T01:39:40.676Z,97592.84
2022-07-29T01:42:22.373Z,97590.09
2022-07-29T01:45:13.693Z,97589.30
2022-07-29T01:47:49.577Z,97586.53
2022-07-29T01:50:20.006Z,97583.59
2022-07-29T01:52:57.728Z,97586.34
2022-07-29T01:55:30.377Z,97581.42
2022-07-29T01:57:59.790Z,97585.36
2022-07-29T02:00:28.741Z,97580.05
2022-07-29T02:02:58.037Z,97583.80
2022-07-29T02:05:28.350Z,97581.05
2022-07-29T02:07:58.810Z,97590.48
2022-07-29T02:10:30.780Z,97589.70
2022-07-29T02:12:59.787Z,97586.55
2022-07-29T02:15:31.432Z,97583.80
2022-07-29T02:18:18.201Z,97586.75
2022-07-29T02:20:50.237Z,97583.20
2022-07-29T02:23:23.348Z,97578.66
2022-07-29T02:25:55.267Z,97574.53
2022-07-29T02:28:28.659Z,97573.56
2022-07-29T02:31:00.437Z,97570.80
2022-07-29T02:33:31.193Z,97571.58
2022-07-29T02:36:01.339Z,97566.47
2022-07-29T02:38:49.327Z,97569.22
2022-07-29T02:41:28.077Z,97571.18
2022-07-29T02:44:10.432Z,97573.14
2022-07-29T02:46:51.901Z,97571.95
2022-07-29T02:49:37.096Z,97571.94
2022-07-29T02:52:27.107Z,97567.42
2022-07-29T02:55:19.719Z,97572.71
2022-07-29T02:58:16.755Z,97569.58
2022-07-29T03:00:47.496Z,97578.23
2022-07-29T03:03:18.905Z,97582.78
2022-07-29T03:05:46.832Z,97587.70
2022-07-29T03:08:16.886Z,97587.33
2022-07-29T03:10:46.303Z,97582.42
2022-07-29T03:13:15.860Z,97582.02
2022-07-29T03:15:45.624Z,97585.97
2022-07-29T03:18:14.482Z,97597.17
2022-07-29T03:20:43.128Z,97590.69
2022-07-29T03:23:10.872Z,97593.44
2022-07-29T03:25:38.223Z,97594.59
2022-07-29T03:28:05.941Z,97592.21
2022-07-29T03:30:33.885Z,97595.17
2022-07-29T03:33:01.506Z,97596.55
2022-07-29T03:35:31.852Z,97593.19
2022-07-29T03:38:00.357Z,97601.04
2022-07-29T03:40:50.472Z,97599.09
2022-07-29T03:43:19.501Z,97597.91
2022-07-29T03:45:50.869Z,97601.45
2022-07-29T03:48:22.841Z,97599.48
2022-07-29T03:50:51.783Z,97602.25
2022-07-29T03:53:19.547Z,97602.27
2022-07-29T03:55:52.640Z,97605.84
2022-07-29T03:58:20.320Z,97602.50
2022-07-29T04:00:48.920Z,97603.28
2022-07-29T04:03:17.209Z,97607.61
2022-07-29T04:05:44.806Z,97611.75
2022-07-29T04:08:12.657Z,97609.78
2022-07-29T04:10:40.345Z,97609.38
2022-07-29T04:13:07.925Z,97608.78
2022-07-29T04:15:35.576Z,97608.98
2022-07-29T04:18:03.350Z,97613.33
2022-07-29T04:20:31.084Z,97614.89
2022-07-29T04:22:58.733Z,97614.51
2022-07-29T04:25:26.517Z,97615.28
2022-07-29T04:28:03.750Z,97607.42
2022-07-29T04:30:33.891Z,97616.06
2022-07-29T04:33:03.407Z,97616.66
2022-07-29T04:35:37.934Z,97618.03
2022-07-29T04:38:04.518Z,97611.93
2022-07-29T04:40:33.572Z,97613.72
2022-07-29T04:43:05.706Z,97614.30
2022-07-29T04:45:31.703Z,97615.50
2022-07-29T04:47:59.594Z,97616.66
2022-07-29T04:50:27.637Z,97614.87
2022-07-29T04:52:55.414Z,97602.10
2022-07-29T04:55:23.505Z,97612.91
2022-07-29T04:57:51.151Z,97612.91
2022-07-29T05:00:19.049Z,97609.94
2022-07-29T05:02:46.903Z,97612.12
2022-07-29T05:05:15.138Z,97615.27
2022-07-29T05:07:42.767Z,97610.94
2022-07-29T05:10:12.193Z,97615.07
2022-07-29T05:12:39.882Z,97614.48
2022-07-29T05:15:09.421Z,97618.98
2022-07-29T05:17:36.970Z,97623.53
2022-07-29T05:20:06.410Z,97626.48
2022-07-29T05:22:34.137Z,97627.07
2022-07-29T05:25:08.557Z,97618.41
2022-07-29T05:27:32.437Z,97621.36
2022-07-29T05:29:59.867Z,97619.97
2022-07-29T05:32:27.556Z,97614.03
2022-07-29T05:34:55.325Z,97616.17
2022-07-29T05:37:22.935Z,97613.95
2022-07-29T05:39:57.293Z,97616.88
2022-07-29T05:42:20.343Z,97617.27
2022-07-29T05:44:48.048Z,97620.78
2022-07-29T05:47:16.572Z,97623.13
2022-07-29T05:49:44.154Z,97616.22
2022-07-29T05:52:12.137Z,97623.89
2022-07-29T05:54:40.976Z,97613.45
2022-07-29T05:57:08.745Z,97609.49
2022-07-29T05:59:37.845Z,97610.70
2022-07-29T06:02:05.760Z,97611.47
2022-07-29T06:04:34.027Z,97610.69
2022-07-29T06:07:02.264Z,97614.23
2022-07-29T06:09:30.568Z,97606.73
2022-07-29T06:11:58.760Z,97609.92
2022-07-29T06:14:28.811Z,97607.52
2022-07-29T06:16:56.852Z,97600.03
2022-07-29T06:19:24.425Z,97605.95
2022-07-29T06:21:52.107Z,97608.13
2022-07-29T06:24:20.249Z,97606.32
2022-07-29T06:26:48.123Z,97608.30
2022-07-29T06:29:15.706Z,97604.72
2022-07-29T06:31:43.725Z,97605.47
2022-07-29T06:34:11.614Z,97598.48
2022-07-29T06:36:39.747Z,97595.05
2022-07-29T06:39:09.334Z,97598.14
2022-07-29T06:41:39.098Z,97588.23
2022-07-29T06:44:09.428Z,97590.56
2022-07-29T06:46:37.354Z,97590.72
2022-07-29T06:49:05.619Z,97593.22
2022-07-29T06:51:33.670Z,97595.94
2022-07-29T06:54:03.561Z,97594.10
2022-07-29T06:56:38.244Z,97592.66
2022-07-29T06:59:04.103Z,97596.94
2022-07-29T07:01:32.013Z,97598.05
2022-07-29T07:03:59.703Z,97594.41
2022-07-29T07:06:28.072Z,97596.50
2022-07-29T07:08:55.644Z,97595.83
2022-07-29T07:11:23.293Z,97593.81
2022-07-29T07:13:50.780Z,97607.18
2022-07-29T07:16:18.817Z,97603.73
2022-07-29T07:18:46.532Z,97607.81
2022-07-29T07:21:19.259Z,97605.50
2022-07-29T07:23:43.537Z,97602.44
2022-07-29T07:26:11.265Z,97604.22
2022-07-29T07:28:38.966Z,97599.38
2022-07-29T07:31:06.629Z,97602.84
2022-07-29T07:33:34.128Z,97599.80
2022-07-29T07:36:01.643Z,97600.53
2022-07-29T07:38:29.530Z,97599.70
2022-07-29T07:40:57.273Z,97605.93
2022-07-29T07:43:24.960Z,97606.97
2022-07-29T07:45:53.331Z,97601.14
2022-07-29T07:48:20.970Z,97601.22
2022-07-29T07:50:49.972Z,97600.25
2022-07-29T07:53:17.619Z,97595.14
2022-07-29T07:56:10.514Z,97592.58
2022-07-29T07:58:15.013Z,97592.27
2022-07-29T08:00:42.634Z,97595.15
2022-07-29T08:03:16.862Z,97596.42
2022-07-29T08:05:41.997Z,97594.63
2022-07-29T08:08:09.848Z,97595.03
2022-07-29T08:10:52.786Z,97596.59
2022-07-29T08:13:22.786Z,97596.64
2022-07-29T08:16:05.178Z,97597.41
2022-07-29T08:18:32.869Z,97597.66
2022-07-29T08:21:00.624Z,97597.70
2022-07-29T08:23:45.982Z,97598.95
2022-07-29T08:25:59.691Z,97598.65
2022-07-29T08:28:27.309Z,97602.20
2022-07-29T08:30:54.850Z,97598.75
2022-07-29T08:33:22.660Z,97597.97
2022-07-29T08:35:50.912Z,97599.53
2022-07-29T08:38:18.682Z,97594.18
2022-07-29T08:40:47.159Z,97596.98
2022-07-29T08:43:14.789Z,97597.72
2022-07-29T08:45:49.669Z,97600.80
2022-07-29T08:48:20.938Z,97599.35
2022-07-29T08:50:55.877Z,97603.22
2022-07-29T08:53:27.370Z,97604.39
2022-07-29T08:55:56.486Z,97600.14
2022-07-29T08:58:25.872Z,97598.92
2022-07-29T09:00:56.105Z,97594.39
2022-07-29T09:03:28.895Z,97595.30
2022-07-29T09:05:56.472Z,97596.33
2022-07-29T09:08:24.231Z,97595.02
2022-07-29T09:10:52.321Z,97595.55
2022-07-29T09:13:20.421Z,97589.01
2022-07-29T09:15:48.108Z,97589.67
2022-07-29T09:18:42.644Z,97584.41
2022-07-29T09:21:33.271Z,97583.05
2022-07-29T09:24:13.637Z,97578.80
2022-07-29T09:26:45.106Z,97582.34
2022-07-29T09:29:17.561Z,97577.27
2022-07-29T09:31:49.441Z,97574.25
2022-07-29T09:34:27.380Z,97566.88
2022-07-29T09:36:56.865Z,97566.48
2022-07-29T09:39:40.939Z,97567.92
2022-07-29T09:42:08.947Z,97566.47
2022-07-29T09:44:50.436Z,97558.86
2022-07-29T09:47:21.698Z,97558.48
2022-07-29T09:49:58.675Z,97549.37
2022-07-29T09:52:29.901Z,97543.91
2022-07-29T09:55:08.837Z,97545.13
2022-07-29T09:57:37.261Z,97539.45
2022-07-29T10:00:16.371Z,97535.42
2022-07-29T10:02:46.892Z,97527.28
2022-07-29T10:05:24.025Z,97524.16
2022-07-29T10:07:57.327Z,97520.09
2022-07-29T10:10:38.504Z,97522.75
2022-07-29T10:13:15.766Z,97514.13
2022-07-29T10:15:46.839Z,97512.78
2022-07-29T10:18:17.198Z,97508.05
2022-07-29T10:20:45.429Z,97510.24
2022-07-29T10:23:13.157Z,97507.92
2022-07-29T10:25:46.029Z,97506.52
2022-07-29T10:28:13.240Z,97498.99
2022-07-29T10:30:41.604Z,97506.06
2022-07-29T10:33:33.172Z,97503.22
2022-07-29T10:36:26.850Z,97494.59
2022-07-29T10:39:23.162Z,97492.58
2022-07-29T10:42:14.562Z,97489.63
2022-07-29T10:44:45.637Z,97492.27
2022-07-29T10:47:25.173Z,97490.28
2022-07-29T10:50:05.697Z,97481.34
2022-07-29T10:52:53.792Z,97479.06
2022-07-29T10:55:47.968Z,97476.03
2022-07-29T10:58:24.088Z,97467.34
2022-07-29T11:00:54.719Z,97472.02
2022-07-29T11:03:50.790Z,97469.70
2022-07-29T11:06:26.609Z,97473.42
2022-07-29T11:08:53.994Z,97467.67
2022-07-29T11:11:30.224Z,97467.05
2022-07-29T11:13:59.977Z,97469.55
2022-07-29T11:16:33.092Z,97465.48
2022-07-29T11:19:26.183Z,97467.39
2022-07-29T11:22:00.349Z,97463.03
2022-07-29T11:24:28.713Z,97468.02
2022-07-29T11:27:18.133Z,97457.88
2022-07-29T11:30:01.424Z,97458.66
2022-07-29T11:32:44.914Z,97455.70
2022-07-29T11:35:18.848Z,97454.60
2022-07-29T11:37:52.757Z,97462.70
2022-07-29T11:40:20.067Z,97466.75
2022-07-29T11:42:48.469Z,97466.75
2022-07-29T11:45:41.477Z,97465.80
2022-07-29T11:48:03.430Z,97459.89
2022-07-29T11:50:35.628Z,97453.54
2022-07-29T11:53:13.916Z,97448.65
2022-07-29T11:55:50.853Z,97444.91
2022-07-29T11:58:12.728Z,97446.93
2022-07-29T12:00:43.149Z,97439.65
2022-07-29T12:03:11.939Z,97443.05
2022-07-29T12:05:48.310Z,97435.59
2022-07-29T12:08:22.723Z,97431.52
2022-07-29T12:10:52.750Z,97433.88
2022-07-29T12:13:22.362Z,97428.25
2022-07-29T12:15:58.805Z,97427.59
2022-07-29T12:18:28.109Z,97425.73
2022-07-29T12:21:03.272Z,97420.11
2022-07-29T12:23:34.915Z,97423.23
2022-07-29T12:26:10.590Z,97416.23
2022-07-29T12:28:40.137Z,97413.70
2022-07-29T12:31:42.386Z,97405.98
2022-07-29T12:33:52.964Z,97391.77
2022-07-29T12:36:20.727Z,97387.88
2022-07-29T12:38:48.367Z,97387.09
2022-07-29T12:41:16.457Z,97385.70
2022-07-29T12:43:54.992Z,97389.30
2022-07-29T12:46:22.802Z,97383.30
2022-07-29T14:12:26.704Z,97412.34
2022-07-29T14:14:54.330Z,97434.39
2022-07-29T14:17:22.303Z,97468.73
2022-07-29T14:19:50.091Z,97474.48
2022-07-29T14:22:19.543Z,97469.72
2022-07-29T14:24:48.999Z,97477.56
2022-07-29T14:27:16.999Z,97490.31
2022-07-29T14:29:46.602Z,97494.70
2022-07-29T14:32:15.377Z,97509.02
2022-07-29T14:34:42.935Z,97501.28
2022-07-29T14:37:16.120Z,97495.05
2022-07-29T14:39:43.214Z,97501.15
2022-07-29T14:42:09.301Z,97502.84
2022-07-29T14:44:38.798Z,97508.27
2022-07-29T14:47:08.187Z,97514.17
2022-07-29T14:49:36.614Z,97515.21
2022-07-29T14:52:05.097Z,97524.53
2022-07-29T14:54:32.798Z,97528.60
2022-07-29T14:57:00.460Z,97532.13
2022-07-29T14:59:28.313Z,97538.36
2022-07-29T15:01:56.458Z,97553.50
2022-07-29T15:04:24.377Z,97553.38
2022-07-29T15:06:52.510Z,97558.61
2022-07-29T15:09:19.984Z,97560.28
2022-07-29T15:11:47.721Z,97549.55
2022-07-29T15:14:15.390Z,97545.77
2022-07-29T15:16:43.867Z,97536.37
2022-07-29T15:19:13.661Z,97532.48
2022-07-29T15:21:48.483Z,97531.77
2022-07-29T15:24:10.994Z,97516.83
2022-07-29T15:26:38.634Z,97511.30
2022-07-29T15:29:06.217Z,97508.55
2022-07-29T15:31:33.982Z,97515.99
2022-07-29T15:34:05.949Z,97522.34
2022-07-29T15:39:00.916Z,97510.43
2022-07-29T15:41:28.574Z,97506.42
2022-07-29T15:43:57.061Z,97505.89
2022-07-29T15:46:43.147Z,97509.05
2022-07-29T15:49:11.022Z,97501.93
2022-07-29T15:51:38.449Z,97504.03
2022-07-29T15:54:06.141Z,97497.64
2022-07-29T15:56:33.918Z,97493.84
2022-07-29T15:59:01.669Z,97496.05
2022-07-29T16:01:29.860Z,97485.89
2022-07-29T16:03:58.719Z,97486.83
2022-07-29T16:06:26.318Z,97490.98
2022-07-29T16:08:55.348Z,97483.03
2022-07-29T16:11:23.138Z,97487.56
2022-07-29T16:13:50.965Z,97497.43
2022-07-29T16:16:18.890Z,97503.14
2022-07-29T16:18:46.579Z,97517.16
2022-07-29T16:21:14.392Z,97522.30
2022-07-29T16:23:42.346Z,97509.41
2022-07-29T16:26:09.819Z,97504.35
2022-07-29T16:28:38.019Z,97499.64
2022-07-29T16:31:05.601Z,97497.70
2022-07-29T16:33:54.414Z,97496.97
2022-07-29T16:36:02.652Z,97502.80
2022-07-29T16:38:30.326Z,97500.50
2022-07-29T16:40:57.964Z,97501.50
2022-07-29T16:43:25.637Z,97495.41
2022-07-29T16:45:54.107Z,97497.26
2022-07-29T16:48:23.011Z,97489.98
2022-07-29T16:50:51.123Z,97496.67
2022-07-29T16:53:19.183Z,97497.48
2022-07-29T16:55:46.862Z,97494.70
2022-07-29T16:58:14.717Z,97491.90
2022-07-29T17:00:42.595Z,97489.52
2022-07-29T17:03:10.380Z,97479.40
2022-07-29T17:05:52.778Z,97479.66
2022-07-29T17:08:09.362Z,97481.39
2022-07-29T17:10:38.100Z,97486.92
2022-07-29T17:13:05.953Z,97493.67
2022-07-29T17:15:36.486Z,97497.44
2022-07-29T17:18:12.371Z,97507.97
2022-07-29T17:20:36.186Z,97509.13
2022-07-29T17:23:03.830Z,97512.31
2022-07-29T17:25:31.416Z,97519.09
2022-07-29T17:28:01.157Z,97522.33
2022-07-29T17:30:29.727Z,97527.12
2022-07-29T17:32:57.365Z,97529.95
2022-07-29T17:35:43.236Z,97524.64
2022-07-29T17:38:11.090Z,97518.57
2022-07-29T17:40:38.722Z,97515.84
2022-07-29T17:43:08.089Z,97510.52
2022-07-29T17:45:50.115Z,97515.91
2022-07-29T17:48:06.109Z,97520.70
2022-07-29T17:50:33.918Z,97522.72
2022-07-29T17:53:01.779Z,97531.83
2022-07-29T17:55:29.624Z,97532.06
2022-07-29T17:58:00.065Z,97536.43
2022-07-29T18:00:26.906Z,97537.63
2022-07-29T18:02:54.696Z,97531.53
2022-07-29T18:05:22.488Z,97524.44
2022-07-29T18:07:50.374Z,97529.40
2022-07-29T18:10:18.035Z,97521.34
2022-07-29T18:12:45.868Z,97514.26
2022-07-29T18:15:14.504Z,97527.89
2022-07-29T18:17:52.762Z,97536.84
2022-07-29T18:20:12.123Z,97536.72
2022-07-29T18:22:39.574Z,97541.31
2022-07-29T18:25:08.045Z,97535.83
2022-07-29T18:27:35.759Z,97543.55
2022-07-29T18:30:05.661Z,97538.86
2022-07-29T18:32:33.326Z,97553.05
2022-07-29T18:35:02.352Z,97546.38
2022-07-29T18:38:01.420Z,97549.77
2022-07-29T18:39:59.679Z,97554.14
2022-07-29T18:42:27.618Z,97551.62
2022-07-29T18:44:55.072Z,97554.80
2022-07-29T18:47:23.150Z,97552.47
2022-07-29T18:49:52.742Z,97554.28
2022-07-29T18:52:20.277Z,97548.38
2022-07-29T18:54:47.786Z,97551.55
2022-07-29T18:57:55.156Z,97562.23
2022-07-29T18:59:45.428Z,97565.80
2022-07-29T19:02:13.261Z,97572.92
2022-07-29T19:04:41.176Z,97570.55
2022-07-29T19:07:08.796Z,97572.94
2022-07-29T19:09:36.431Z,97572.11
2022-07-29T19:12:07.021Z,97575.09
2022-07-29T19:14:34.941Z,97572.51
2022-07-29T19:17:02.642Z,97572.88
2022-07-29T19:19:30.030Z,97574.86
2022-07-29T19:21:57.390Z,97581.56
2022-07-29T19:24:24.914Z,97582.75
2022-07-29T19:26:52.676Z,97594.16
2022-07-29T19:29:20.651Z,97598.13
2022-07-29T19:31:48.393Z,97602.06
2022-07-29T19:34:15.978Z,97597.11
2022-07-29T19:36:43.697Z,97587.49
2022-07-29T19:39:11.845Z,97595.97
2022-07-29T19:41:39.439Z,97598.14
2022-07-29T19:44:07.127Z,97593.42
2022-07-29T19:46:34.717Z,97584.58
2022-07-29T19:49:02.527Z,97586.34
2022-07-29T19:51:30.126Z,97577.52
2022-07-29T19:53:58.007Z,97580.84
2022-07-29T19:56:26.814Z,97583.23
2022-07-29T19:58:56.576Z,97575.74
2022-07-29T20:01:24.296Z,97573.99
2022-07-29T20:03:53.391Z,97576.16
2022-07-29T20:06:22.626Z,97568.31
2022-07-29T20:08:55.414Z,97572.63
2022-07-29T20:11:20.746Z,97564.73
2022-07-29T20:13:48.391Z,97569.08
2022-07-29T20:16:16.617Z,97572.61
2022-07-29T20:18:44.250Z,97561.16
2022-07-29T20:21:11.748Z,97557.97
2022-07-29T20:23:39.485Z,97557.94
2022-07-29T20:26:09.712Z,97550.03
2022-07-29T20:28:38.888Z,97550.42
2022-07-29T20:31:06.586Z,97550.42
2022-07-29T20:33:34.378Z,97551.99
2022-07-29T20:36:01.807Z,97538.19
2022-07-29T20:38:30.214Z,97546.28
2022-07-29T20:40:58.311Z,97547.69
2022-07-29T20:43:26.775Z,97543.78
2022-07-29T20:45:54.419Z,97546.33
2022-07-29T20:48:22.236Z,97552.08
2022-07-29T20:50:50.930Z,97551.09
2022-07-29T20:53:19.928Z,97556.05
2022-07-29T20:55:47.567Z,97546.00
2022-07-29T20:58:15.338Z,97545.05
2022-07-29T21:00:43.122Z,97540.13
2022-07-29T21:03:10.962Z,97541.33
2022-07-29T21:05:38.603Z,97545.25
2022-07-29T21:08:08.099Z,97541.52
2022-07-29T21:10:35.910Z,97539.55
2022-07-29T21:13:03.452Z,97540.73
2022-07-29T21:15:32.134Z,97543.50
2022-07-29T21:18:01.664Z,97538.59
2022-07-29T21:20:30.638Z,97536.20
2022-07-29T21:22:58.822Z,97535.41
2022-07-29T21:25:28.194Z,97537.56
2022-07-29T21:28:14.361Z,97541.09
2022-07-29T21:30:42.078Z,97536.16
2022-07-29T21:33:09.799Z,97541.86
2022-07-29T21:36:06.210Z,97541.86
2022-07-29T21:38:07.065Z,97535.97
2022-07-29T21:40:34.788Z,97541.09
2022-07-29T21:43:02.537Z,97541.70
2022-07-29T21:45:30.474Z,97551.17
2022-07-29T21:47:57.982Z,97548.66
2022-07-29T21:50:25.570Z,97546.11
2022-07-29T21:52:53.444Z,97547.89
2022-07-29T21:55:21.104Z,97540.80
2022-07-29T21:57:50.726Z,97531.34
2022-07-29T22:00:18.378Z,97534.33
2022-07-29T22:02:46.030Z,97532.55
2022-07-29T22:05:14.270Z,97530.98
2022-07-29T22:07:55.442Z,97527.45
2022-07-29T22:10:11.570Z,97523.91
2022-07-29T22:12:39.331Z,97529.02
2022-07-29T22:15:08.439Z,97529.20
2022-07-29T22:17:36.276Z,97532.17
2022-07-29T22:20:06.102Z,97529.01
2022-07-29T22:22:33.851Z,97527.03
2022-07-29T22:25:01.887Z,97530.38
2022-07-29T22:27:29.506Z,97528.99
2022-07-29T22:29:59.375Z,97530.97
2022-07-29T22:32:27.079Z,97531.34
2022-07-29T22:34:54.652Z,97529.78
2022-07-29T22:37:22.493Z,97531.16
2022-07-29T22:39:50.124Z,97529.78
2022-07-29T22:42:17.769Z,97535.70
2022-07-29T22:44:48.387Z,97527.82
2022-07-29T22:47:15.979Z,97528.64
2022-07-29T22:49:43.631Z,97524.32
2022-07-29T22:52:11.735Z,97524.92
2022-07-29T22:54:41.130Z,97514.87
2022-07-29T22:57:08.780Z,97521.38
2022-07-29T22:59:37.186Z,97518.82
2022-07-29T23:02:06.784Z,97523.93
2022-07-29T23:04:34.348Z,97520.61
2022-07-29T23:07:02.566Z,97513.50
2022-07-29T23:09:30.722Z,97518.64
2022-07-29T23:11:58.456Z,97510.19
2022-07-29T23:14:26.136Z,97512.72
2022-07-29T23:16:53.650Z,97507.02
2022-07-29T23:19:21.444Z,97509.59
2022-07-29T23:21:49.097Z,97499.53
2022-07-29T23:24:16.679Z,97501.69
2022-07-29T23:26:44.315Z,97490.67
2022-07-29T23:29:12.134Z,97493.61
2022-07-29T23:31:41.831Z,97487.72
2022-07-29T23:34:09.441Z,97490.89
2022-07-29T23:36:37.142Z,97492.65
2022-07-29T23:39:05.581Z,97485.38
2022-07-29T23:41:33.273Z,97479.28
2022-07-29T23:44:01.088Z,97477.31
2022-07-29T23:46:28.779Z,97475.55
2022-07-29T23:48:56.435Z,97478.69
2022-07-29T23:51:24.144Z,97481.27
2022-07-29T23:53:53.908Z,97481.67
2022-07-29T23:56:21.424Z,97477.16
2022-07-29T23:58:49.057Z,97475.57
